createdAt,value
2023-04-12T00:00:12.092Z,97612.41
2023-04-12T00:02:42.540Z,97618.25
2023-04-12T00:05:14.228Z,97610.59
2023-04-12T00:07:47.082Z,97608.84
2023-04-12T00:10:15.689Z,97615.63
2023-04-12T00:12:43.907Z,97603.78
2023-04-12T00:15:12.799Z,97604.63
2023-04-12T00:17:41.174Z,97607.19
2023-04-12T00:20:12.952Z,97591.06
2023-04-12T00:22:42.894Z,97590.19
2023-04-12T00:25:11.719Z,97585.09
2023-04-12T00:27:40.636Z,97578.28
2023-04-12T00:30:09.912Z,97571.41
2023-04-12T00:32:38.012Z,97570.53
2023-04-12T00:35:07.158Z,97564.56
2023-04-12T00:37:38.766Z,97562.88
2023-04-12T00:40:11.031Z,97564.53
2023-04-12T00:42:39.279Z,97561.13
2023-04-12T00:45:08.563Z,97550.09
2023-04-12T00:47:38.003Z,97545.78
2023-04-12T00:50:07.234Z,97538.97
2023-04-12T00:52:35.758Z,97533.09
2023-04-12T00:55:05.408Z,97533.88
2023-04-12T00:57:37.952Z,97534.66
2023-04-12T01:00:09.072Z,97533.88
2023-04-12T01:02:39.486Z,97532.19
2023-04-12T01:05:14.981Z,97533.06
2023-04-12T01:07:54.449Z,97532.13
2023-04-12T01:10:34.955Z,97538.88
2023-04-12T01:13:12.879Z,97528.66
2023-04-12T01:15:47.499Z,97523.63
2023-04-12T01:18:21.279Z,97517.66
2023-04-12T01:20:57.899Z,97513.44
2023-04-12T01:24:03.075Z,97508.34
2023-04-12T01:26:40.926Z,97504.84
2023-04-12T01:29:13.496Z,97506.59
2023-04-12T01:31:43.367Z,97497.25
2023-04-12T01:34:13.577Z,97493.81
2023-04-12T01:36:44.109Z,97488.72
2023-04-12T01:39:12.529Z,97494.56
2023-04-12T01:41:45.377Z,97481.00
2023-04-12T01:44:16.536Z,97482.72
2023-04-12T01:46:46.962Z,97470.03
2023-04-12T01:49:15.697Z,97469.22
2023-04-12T01:51:52.531Z,97489.59
2023-04-12T01:54:24.469Z,97479.28
2023-04-12T01:56:59.068Z,97475.78
2023-04-12T01:59:33.808Z,97476.66
2023-04-12T02:02:03.647Z,97490.03
2023-04-12T02:04:32.895Z,97477.28
2023-04-12T02:07:01.345Z,97446.03
2023-04-12T02:09:29.592Z,97464.53
2023-04-12T02:11:58.034Z,97461.16
2023-04-12T02:14:27.298Z,97455.09
2023-04-12T02:16:58.346Z,97450.88
2023-04-12T02:19:26.613Z,97435.69
2023-04-12T02:21:54.854Z,97430.50
2023-04-12T02:24:23.019Z,97427.97
2023-04-12T02:26:51.218Z,97428.00
2023-04-12T02:29:19.368Z,97417.91
2023-04-12T02:31:48.423Z,97419.53
2023-04-12T02:34:19.466Z,97413.50
2023-04-12T02:36:48.544Z,97413.59
2023-04-12T02:39:18.918Z,97416.88
2023-04-12T02:41:47.235Z,97417.69
2023-04-12T02:44:15.503Z,97408.22
2023-04-12T02:46:43.576Z,97409.88
2023-04-12T02:49:11.899Z,97397.94
2023-04-12T02:51:41.898Z,97400.47
2023-04-12T02:54:10.450Z,97410.63
2023-04-12T02:56:38.687Z,97402.97
2023-04-12T02:59:06.961Z,97406.34
2023-04-12T03:01:35.235Z,97401.13
2023-04-12T03:04:03.522Z,97407.00
2023-04-12T03:06:32.162Z,97404.50
2023-04-12T03:09:01.597Z,97391.00
2023-04-12T03:11:29.868Z,97394.50
2023-04-12T03:13:58.238Z,97393.91
2023-04-12T03:16:30.107Z,97384.66
2023-04-12T03:18:59.525Z,97376.31
2023-04-12T03:21:28.431Z,97386.47
2023-04-12T03:23:56.921Z,97383.09
2023-04-12T03:26:27.165Z,97374.66
2023-04-12T03:29:05.164Z,97372.97
2023-04-12T03:31:33.369Z,97374.56
2023-04-12T03:34:01.917Z,97365.19
2023-04-12T03:36:31.596Z,97371.09
2023-04-12T03:39:00.055Z,97361.78
2023-04-12T03:41:30.258Z,97357.44
2023-04-12T03:43:58.538Z,97354.03
2023-04-12T03:46:26.904Z,97356.53
2023-04-12T03:48:56.081Z,97352.34
2023-04-12T03:51:27.044Z,97353.09
2023-04-12T03:53:55.770Z,97361.56
2023-04-12T03:56:24.848Z,97353.03
2023-04-12T03:58:54.675Z,97348.78
2023-04-12T04:01:23.760Z,97347.84
2023-04-12T04:03:52.611Z,97346.16
2023-04-12T04:06:21.924Z,97342.69
2023-04-12T04:08:50.329Z,97331.75
2023-04-12T04:11:18.775Z,97339.16
2023-04-12T04:13:48.025Z,97327.41
2023-04-12T04:16:18.247Z,97330.56
2023-04-12T04:18:46.409Z,97327.19
2023-04-12T04:21:15.569Z,97323.69
2023-04-12T04:23:48.120Z,97330.34
2023-04-12T04:26:17.261Z,97324.25
2023-04-12T04:28:46.506Z,97321.69
2023-04-12T04:31:17.780Z,97319.00
2023-04-12T04:33:48.021Z,97310.50
2023-04-12T04:36:16.731Z,97306.28
2023-04-12T04:38:45.482Z,97313.00
2023-04-12T04:41:13.960Z,97303.50
2023-04-12T04:43:42.975Z,97297.50
2023-04-12T04:46:12.086Z,97288.13
2023-04-12T04:48:41.063Z,97297.53
2023-04-12T04:51:10.668Z,97301.72
2023-04-12T04:53:38.843Z,97310.94
2023-04-12T04:56:08.076Z,97312.66
2023-04-12T04:58:36.640Z,97300.84
2023-04-12T05:01:05.571Z,97307.56
2023-04-12T05:03:34.576Z,97311.84
2023-04-12T05:06:03.515Z,97309.22
2023-04-12T05:08:33.210Z,97310.81
2023-04-12T05:11:01.415Z,97305.66
2023-04-12T05:13:29.742Z,97294.44
2023-04-12T05:15:57.933Z,97299.53
2023-04-12T05:18:26.405Z,97286.72
2023-04-12T05:20:55.008Z,97280.66
2023-04-12T05:23:23.495Z,97280.66
2023-04-12T05:25:53.508Z,97278.97
2023-04-12T05:28:21.789Z,97273.81
2023-04-12T05:30:50.160Z,97266.75
2023-04-12T05:33:18.401Z,97252.38
2023-04-12T05:35:46.752Z,97264.94
2023-04-12T05:38:15.161Z,97258.00
2023-04-12T05:40:44.372Z,97263.91
2023-04-12T05:43:14.650Z,97263.00
2023-04-12T05:45:43.207Z,97266.28
2023-04-12T05:48:12.001Z,97264.59
2023-04-12T05:50:40.527Z,97251.56
2023-04-12T05:53:14.836Z,97254.13
2023-04-12T05:55:43.817Z,97249.84
2023-04-12T05:58:13.853Z,97251.44
2023-04-12T06:00:47.057Z,97259.81
2023-04-12T06:03:15.751Z,97263.16
2023-04-12T06:05:45.122Z,97269.00
2023-04-12T06:08:15.038Z,97249.59
2023-04-12T06:10:43.737Z,97252.53
2023-04-12T06:13:14.363Z,97241.69
2023-04-12T06:15:46.269Z,97248.53
2023-04-12T06:18:15.710Z,97238.38
2023-04-12T06:20:44.091Z,97237.66
2023-04-12T06:23:12.648Z,97242.75
2023-04-12T06:25:40.861Z,97240.03
2023-04-12T06:28:09.577Z,97241.81
2023-04-12T06:30:39.420Z,97234.88
2023-04-12T06:33:08.616Z,97233.88
2023-04-12T06:35:37.097Z,97239.75
2023-04-12T06:38:06.090Z,97235.41
2023-04-12T06:40:34.580Z,97216.56
2023-04-12T06:43:02.855Z,97218.13
2023-04-12T06:45:31.401Z,97230.00
2023-04-12T06:48:01.205Z,97202.84
2023-04-12T06:50:31.258Z,97211.13
2023-04-12T06:52:59.629Z,97222.03
2023-04-12T06:55:29.436Z,97213.53
2023-04-12T06:57:57.943Z,97206.69
2023-04-12T07:00:26.654Z,97202.28
2023-04-12T07:02:55.355Z,97187.75
2023-04-12T07:05:25.777Z,97194.72
2023-04-12T07:07:54.293Z,97190.31
2023-04-12T07:10:22.519Z,97181.75
2023-04-12T07:12:52.136Z,97170.91
2023-04-12T07:15:20.621Z,97166.25
2023-04-12T07:17:49.108Z,97184.97
2023-04-12T07:20:17.606Z,97179.09
2023-04-12T07:22:47.458Z,97169.44
2023-04-12T07:25:15.993Z,97173.75
2023-04-12T07:27:44.405Z,97175.78
2023-04-12T07:30:13.918Z,97158.63
2023-04-12T07:32:44.593Z,97158.41
2023-04-12T07:35:13.060Z,97148.19
2023-04-12T07:37:41.955Z,97145.47
2023-04-12T07:40:12.540Z,97146.06
2023-04-12T07:42:40.748Z,97147.59
2023-04-12T07:45:10.018Z,97139.03
2023-04-12T07:47:38.565Z,97136.97
2023-04-12T07:50:08.097Z,97136.56
2023-04-12T07:52:36.603Z,97130.38
2023-04-12T07:55:05.564Z,97130.19
2023-04-12T07:57:35.653Z,97128.78
2023-04-12T08:00:06.050Z,97121.84
2023-04-12T08:02:34.585Z,97107.69
2023-04-12T08:05:03.088Z,97126.13
2023-04-12T08:07:31.630Z,97111.44
2023-04-12T08:09:59.785Z,97109.53
2023-04-12T08:12:27.991Z,97109.19
2023-04-12T08:14:57.496Z,97097.78
2023-04-12T08:17:28.798Z,97092.78
2023-04-12T08:19:57.487Z,97090.88
2023-04-12T08:22:26.046Z,97093.31
2023-04-12T08:24:54.472Z,97078.75
2023-04-12T08:27:23.443Z,97085.31
2023-04-12T08:29:52.107Z,97081.34
2023-04-12T08:34:50.084Z,97075.34
2023-04-12T08:37:18.893Z,97078.53
2023-04-12T08:39:47.075Z,97073.81
2023-04-12T08:42:16.366Z,97057.56
2023-04-12T08:44:45.761Z,97059.84
2023-04-12T08:47:14.669Z,97059.34
2023-04-12T08:49:45.417Z,97061.59
2023-04-12T08:52:14.313Z,97054.00
2023-04-12T08:54:42.881Z,97051.00
2023-04-12T08:57:11.492Z,97044.84
2023-04-12T08:59:43.538Z,97040.50
2023-04-12T09:02:12.033Z,97039.19
2023-04-12T09:04:50.482Z,97038.16
2023-04-12T09:07:19.184Z,97025.34
2023-04-12T09:09:48.615Z,97028.31
2023-04-12T09:12:17.852Z,97018.41
2023-04-12T09:14:46.156Z,97005.94
2023-04-12T09:17:28.217Z,97011.81
2023-04-12T09:19:58.136Z,97009.25
2023-04-12T09:22:37.425Z,96989.31
2023-04-12T09:25:06.543Z,96990.88
2023-04-12T09:27:47.564Z,96987.44
2023-04-12T09:30:18.295Z,96977.50
2023-04-12T09:32:46.870Z,96968.16
2023-04-12T09:35:17.518Z,96968.38
2023-04-12T09:37:45.933Z,96965.69
2023-04-12T09:40:14.568Z,96978.81
2023-04-12T09:42:53.692Z,96966.13
2023-04-12T09:45:24.485Z,96959.50
2023-04-12T09:47:53.961Z,96951.56
2023-04-12T09:50:24.684Z,96933.72
2023-04-12T09:52:54.287Z,96940.53
2023-04-12T09:55:24.346Z,96931.41
2023-04-12T09:57:54.264Z,96941.47
2023-04-12T10:00:26.939Z,96939.28
2023-04-12T10:02:57.944Z,96924.78
2023-04-12T10:05:28.453Z,96932.72
2023-04-12T10:07:57.505Z,96935.28
2023-04-12T10:10:26.619Z,96924.78
2023-04-12T10:12:55.237Z,96923.53
2023-04-12T10:15:23.675Z,96922.97
2023-04-12T10:17:54.054Z,96924.66
2023-04-12T10:20:28.232Z,96915.13
2023-04-12T10:23:00.019Z,96913.69
2023-04-12T10:25:31.169Z,96908.75
2023-04-12T10:28:15.557Z,96898.34
2023-04-12T10:30:44.102Z,96900.41
2023-04-12T10:33:18.409Z,96889.91
2023-04-12T10:35:58.261Z,96889.50
2023-04-12T10:38:35.279Z,96875.88
2023-04-12T10:41:14.932Z,96877.13
2023-04-12T10:43:44.210Z,96867.41
2023-04-12T10:46:50.520Z,96868.44
2023-04-12T10:49:19.523Z,96863.38
2023-04-12T10:52:18.523Z,96857.63
2023-04-12T10:54:48.870Z,96855.72
2023-04-12T10:57:49.847Z,96846.59
2023-04-12T11:00:18.859Z,96837.13
2023-04-12T11:03:07.631Z,96838.44
2023-04-12T11:05:58.286Z,96830.06
2023-04-12T11:08:27.916Z,96820.09
2023-04-12T11:11:03.800Z,96823.66
2023-04-12T11:13:37.373Z,96833.19
2023-04-12T11:16:07.861Z,96823.63
2023-04-12T11:18:36.847Z,96833.13
2023-04-12T11:21:06.344Z,96825.56
2023-04-12T11:23:36.418Z,96832.91
2023-04-12T11:26:07.466Z,96848.47
2023-04-12T11:28:36.066Z,96818.06
2023-04-12T11:31:04.553Z,96823.59
2023-04-12T11:33:34.435Z,96837.63
2023-04-12T11:36:06.038Z,96814.00
2023-04-12T11:38:35.875Z,96838.16
2023-04-12T11:41:07.305Z,96833.59
2023-04-12T11:43:36.191Z,96830.97
2023-04-12T11:46:04.851Z,96821.28
2023-04-12T11:48:34.108Z,96818.78
2023-04-12T11:51:10.937Z,96825.50
2023-04-12T11:53:40.216Z,96812.97
2023-04-12T11:56:12.159Z,96799.81
2023-04-12T11:58:40.811Z,96793.38
2023-04-12T12:01:09.277Z,96787.06
2023-04-12T12:03:38.252Z,96784.94
2023-04-12T12:06:08.585Z,96783.41
2023-04-12T12:08:39.695Z,96779.72
2023-04-12T12:11:10.660Z,96782.56
2023-04-12T12:13:50.037Z,96791.03
2023-04-12T12:16:19.191Z,96781.84
2023-04-12T12:18:52.377Z,96784.63
2023-04-12T12:21:21.796Z,96768.25
2023-04-12T12:23:51.129Z,96772.00
2023-04-12T12:26:25.463Z,96777.28
2023-04-12T12:28:55.092Z,96763.81
2023-04-12T12:31:25.103Z,96767.81
2023-04-12T12:34:00.151Z,96753.88
2023-04-12T12:36:36.224Z,96752.00
2023-04-12T12:39:10.694Z,96746.41
2023-04-12T12:41:41.543Z,96743.75
2023-04-12T12:44:11.363Z,96728.38
2023-04-12T12:46:53.597Z,96729.00
2023-04-12T12:49:25.638Z,96712.41
2023-04-12T12:51:53.923Z,96709.09
2023-04-12T12:54:39.284Z,96718.81
2023-04-12T12:57:11.067Z,96704.78
2023-04-12T12:59:40.250Z,96703.53
2023-04-12T13:02:09.172Z,96702.75
2023-04-12T13:04:37.957Z,96704.13
2023-04-12T13:07:06.158Z,96713.66
2023-04-12T13:09:34.654Z,96702.13
2023-04-12T13:12:03.444Z,96700.72
2023-04-12T13:14:33.088Z,96687.19
2023-04-12T13:17:01.644Z,96681.13
2023-04-12T13:19:30.238Z,96689.31
2023-04-12T13:21:58.422Z,96692.53
2023-04-12T13:24:26.880Z,96684.66
2023-04-12T13:26:55.033Z,96685.94
2023-04-12T13:29:23.651Z,96687.19
2023-04-12T13:31:53.329Z,96678.56
2023-04-12T13:34:22.231Z,96677.56
2023-04-12T13:36:50.873Z,96678.53
2023-04-12T13:39:19.138Z,96672.06
2023-04-12T13:41:47.298Z,96660.38
2023-04-12T13:44:15.773Z,96639.28
2023-04-12T13:46:43.968Z,96656.84
2023-04-12T13:49:14.030Z,96650.22
2023-04-12T13:51:42.243Z,96638.22
2023-04-12T13:54:10.658Z,96642.28
2023-04-12T13:56:38.857Z,96647.22
2023-04-12T13:59:07.563Z,96649.28
2023-04-12T14:01:36.426Z,96643.19
2023-04-12T14:04:05.395Z,96642.03
2023-04-12T14:06:36.437Z,96630.41
2023-04-12T14:09:05.815Z,96619.47
2023-04-12T14:11:47.329Z,96621.38
2023-04-12T14:14:16.957Z,96610.97
2023-04-12T14:16:46.287Z,96609.13
2023-04-12T14:19:14.763Z,96612.28
2023-04-12T14:21:44.588Z,96608.47
2023-04-12T14:24:12.922Z,96616.72
2023-04-12T14:26:41.234Z,96605.50
2023-04-12T14:29:09.739Z,96603.03
2023-04-12T14:31:38.198Z,96601.97
2023-04-12T14:34:08.937Z,96603.63
2023-04-12T14:36:37.450Z,96603.63
2023-04-12T14:39:10.443Z,96594.97
2023-04-12T14:41:39.428Z,96569.47
2023-04-12T14:44:07.737Z,96557.97
2023-04-12T14:46:36.382Z,96572.00
2023-04-12T14:49:04.668Z,96580.13
2023-04-12T14:51:33.549Z,96577.34
2023-04-12T14:54:02.118Z,96584.94
2023-04-12T14:56:33.315Z,96582.09
2023-04-12T14:59:04.462Z,96581.53
2023-04-12T15:01:34.067Z,96562.41
2023-04-12T15:04:04.123Z,96547.84
2023-04-12T15:06:35.522Z,96544.84
2023-04-12T15:09:06.463Z,96540.41
2023-04-12T15:11:38.348Z,96553.75
2023-04-12T15:14:07.849Z,96553.13
2023-04-12T15:16:39.154Z,96556.47
2023-04-12T15:19:17.555Z,96544.75
2023-04-12T15:21:51.129Z,96526.03
2023-04-12T15:24:20.095Z,96531.38
2023-04-12T15:26:51.116Z,96539.88
2023-04-12T15:29:20.290Z,96529.91
2023-04-12T15:31:48.927Z,96523.84
2023-04-12T15:34:18.143Z,96529.16
2023-04-12T15:36:47.005Z,96530.81
2023-04-12T15:39:16.352Z,96523.44
2023-04-12T15:41:44.864Z,96513.66
2023-04-12T15:44:14.557Z,96520.75
2023-04-12T15:46:43.641Z,96515.13
2023-04-12T15:49:12.973Z,96508.88
2023-04-12T15:51:41.830Z,96509.44
2023-04-12T15:54:10.365Z,96499.28
2023-04-12T15:56:38.923Z,96499.16
2023-04-12T15:59:07.915Z,96507.53
2023-04-12T16:01:38.192Z,96501.41
2023-04-12T16:04:07.241Z,96500.84
2023-04-12T16:06:38.362Z,96495.13
2023-04-12T16:09:07.701Z,96497.31
2023-04-12T16:11:36.502Z,96494.41
2023-04-12T16:14:06.234Z,96479.41
2023-04-12T16:16:35.675Z,96489.16
2023-04-12T16:19:06.426Z,96486.88
2023-04-12T16:21:35.067Z,96488.03
2023-04-12T16:24:05.278Z,96487.97
2023-04-12T16:26:33.865Z,96486.75
2023-04-12T16:29:03.838Z,96484.94
2023-04-12T16:31:32.410Z,96474.16
2023-04-12T16:34:01.264Z,96480.84
2023-04-12T16:36:31.902Z,96482.84
2023-04-12T16:39:02.030Z,96477.50
2023-04-12T16:41:30.533Z,96481.19
2023-04-12T16:44:03.503Z,96489.22
2023-04-12T16:46:32.087Z,96466.44
2023-04-12T16:49:03.859Z,96488.03
2023-04-12T16:51:36.746Z,96495.72
2023-04-12T16:54:06.325Z,96494.91
2023-04-12T16:56:34.342Z,96498.59
2023-04-12T16:59:05.368Z,96481.59
2023-04-12T17:01:34.610Z,96500.00
2023-04-12T17:04:03.800Z,96498.50
2023-04-12T17:06:34.256Z,96492.03
2023-04-12T17:09:02.345Z,96560.72
2023-04-12T17:11:30.340Z,96540.44
2023-04-12T17:13:58.983Z,96548.22
2023-04-12T17:16:31.207Z,96506.41
2023-04-12T17:18:59.865Z,96506.69
2023-04-12T17:21:28.163Z,96517.63
2023-04-12T17:23:58.363Z,96525.50
2023-04-12T17:26:28.179Z,96534.13
2023-04-12T17:28:59.992Z,96539.28
2023-04-12T17:31:29.595Z,96544.81
2023-04-12T17:33:58.990Z,96551.84
2023-04-12T17:36:32.184Z,96538.91
2023-04-12T17:39:04.861Z,96555.53
2023-04-12T17:41:33.560Z,96541.31
2023-04-12T17:44:02.659Z,96565.41
2023-04-12T17:46:31.024Z,96571.34
2023-04-12T17:49:00.236Z,96560.00
2023-04-12T17:51:29.488Z,96551.22
2023-04-12T17:54:00.709Z,96555.09
2023-04-12T17:56:30.821Z,96552.13
2023-04-12T17:59:02.458Z,96555.97
2023-04-12T18:01:31.784Z,96579.16
2023-04-12T18:04:02.953Z,96589.44
2023-04-12T18:06:31.869Z,96593.06
2023-04-12T18:09:00.831Z,96593.22
2023-04-12T18:11:31.394Z,96591.69
2023-04-12T18:14:00.458Z,96604.72
2023-04-12T18:16:29.607Z,96604.66
2023-04-12T18:18:58.684Z,96606.75
2023-04-12T18:21:28.654Z,96604.59
2023-04-12T18:23:57.200Z,96605.88
2023-04-12T18:26:26.834Z,96615.22
2023-04-12T18:28:56.535Z,96608.06
2023-04-12T18:31:25.083Z,96624.59
2023-04-12T18:33:53.652Z,96635.81
2023-04-12T18:36:21.780Z,96631.66
2023-04-12T18:38:50.409Z,96631.72
2023-04-12T18:41:18.988Z,96653.22
2023-04-12T18:43:47.388Z,96645.25
2023-04-12T18:46:20.655Z,96670.72
2023-04-12T18:48:52.265Z,96662.38
2023-04-12T18:51:21.607Z,96658.41
2023-04-12T18:53:50.708Z,96685.66
2023-04-12T18:56:23.433Z,96685.03
2023-04-12T18:58:55.632Z,96697.72
2023-04-12T19:01:26.893Z,96702.13
2023-04-12T19:03:55.304Z,96701.25
2023-04-12T19:06:23.774Z,96714.78
2023-04-12T19:08:52.371Z,96721.56
2023-04-12T19:11:20.648Z,96706.56
2023-04-12T19:13:49.574Z,96706.28
2023-04-12T19:16:18.196Z,96701.28
2023-04-12T19:18:48.470Z,96698.34
2023-04-12T19:21:16.425Z,96696.81
2023-04-12T19:23:44.675Z,96696.81
2023-04-12T19:26:13.514Z,96722.00
2023-04-12T19:28:43.586Z,96717.16
2023-04-12T19:31:12.223Z,96707.56
2023-04-12T19:33:41.734Z,96692.56
2023-04-12T19:36:12.575Z,96700.97
2023-04-12T19:38:41.552Z,96702.06
2023-04-12T19:41:09.924Z,96696.28
2023-04-12T19:43:38.362Z,96692.81
2023-04-12T19:46:07.620Z,96703.97
2023-04-12T19:48:36.098Z,96710.81
2023-04-12T19:51:05.321Z,96686.72
2023-04-12T19:53:35.585Z,96674.13
2023-04-12T19:56:06.093Z,96679.34
2023-04-12T19:58:34.868Z,96658.53
2023-04-12T20:01:03.285Z,96661.94
2023-04-12T20:03:32.516Z,96667.31
2023-04-12T20:06:04.769Z,96667.44
2023-04-12T20:08:36.089Z,96682.69
2023-04-12T20:11:04.631Z,96678.78
2023-04-12T20:13:34.281Z,96685.78
2023-04-12T20:16:02.912Z,96694.50
2023-04-12T20:18:31.436Z,96692.13
2023-04-12T20:20:59.957Z,96682.06
2023-04-12T20:23:28.313Z,96687.25
2023-04-12T20:25:58.077Z,96694.75
2023-04-12T20:28:26.774Z,96703.53
2023-04-12T20:30:55.698Z,96707.84
2023-04-12T20:33:24.566Z,96710.53
2023-04-12T20:35:54.235Z,96717.50
2023-04-12T20:38:22.832Z,96714.13
2023-04-12T20:40:51.935Z,96716.91
2023-04-12T20:43:21.859Z,96702.00
2023-04-12T20:45:50.906Z,96702.22
2023-04-12T20:48:20.025Z,96718.34
2023-04-12T20:50:48.437Z,96716.88
2023-04-12T20:53:17.831Z,96706.09
2023-04-12T20:55:46.561Z,96711.31
2023-04-12T20:58:16.521Z,96724.22
2023-04-12T21:00:46.922Z,96721.03
2023-04-12T21:03:15.726Z,96721.50
2023-04-12T21:05:46.079Z,96708.84
2023-04-12T21:08:14.427Z,96728.06
2023-04-12T21:10:42.984Z,96721.84
2023-04-12T21:13:11.970Z,96723.38
2023-04-12T21:15:40.776Z,96722.47
2023-04-12T21:18:10.486Z,96722.66
2023-04-12T21:20:38.998Z,96731.06
2023-04-12T21:23:07.604Z,96725.13
2023-04-12T21:25:35.983Z,96726.78
2023-04-12T21:28:04.639Z,96733.56
2023-04-12T21:30:33.542Z,96737.41
2023-04-12T21:33:02.470Z,96739.69
2023-04-12T21:35:32.278Z,96751.66
2023-04-12T21:38:00.963Z,96748.19
2023-04-12T21:40:29.124Z,96748.56
2023-04-12T21:42:57.732Z,96770.38
2023-04-12T21:45:27.519Z,96767.13
2023-04-12T21:47:55.980Z,96765.47
2023-04-12T21:50:24.390Z,96760.47
2023-04-12T21:52:56.637Z,96764.75
2023-04-12T21:55:25.274Z,96772.47
2023-04-12T21:57:53.740Z,96775.94
2023-04-12T22:00:24.895Z,96789.50
2023-04-12T22:02:52.998Z,96786.06
2023-04-12T22:05:21.436Z,96783.00
2023-04-12T22:07:50.482Z,96792.22
2023-04-12T22:10:20.766Z,96797.31
2023-04-12T22:12:50.503Z,96795.63
2023-04-12T22:15:19.316Z,96784.53
2023-04-12T22:17:48.517Z,96787.94
2023-04-12T22:20:16.746Z,96796.50
2023-04-12T22:22:45.290Z,96796.59
2023-04-12T22:25:15.812Z,96802.47
2023-04-12T22:27:46.563Z,96803.28
2023-04-12T22:30:16.035Z,96800.69
2023-04-12T22:32:44.703Z,96794.97
2023-04-12T22:35:13.129Z,96804.81
2023-04-12T22:37:43.160Z,96801.53
2023-04-12T22:40:14.403Z,96801.91
2023-04-12T22:42:46.717Z,96830.69
2023-04-12T22:45:17.377Z,96834.13
2023-04-12T22:47:46.664Z,96830.09
2023-04-12T22:50:15.209Z,96832.44
2023-04-12T22:52:43.623Z,96829.91
2023-04-12T22:55:14.272Z,96812.41
2023-04-12T22:57:42.368Z,96841.84
2023-04-12T23:00:15.770Z,96839.03
2023-04-12T23:02:47.910Z,96847.19
2023-04-12T23:05:16.590Z,96855.63
2023-04-12T23:07:44.769Z,96870.13
2023-04-12T23:10:13.354Z,96871.88
2023-04-12T23:12:41.835Z,96864.41
2023-04-12T23:15:10.857Z,96865.31
2023-04-12T23:17:38.936Z,96861.81
2023-04-12T23:20:13.339Z,96866.41
2023-04-12T23:22:57.477Z,96849.81
2023-04-12T23:25:38.085Z,96863.91
2023-04-12T23:28:07.757Z,96868.19
2023-04-12T23:30:35.806Z,96866.63
2023-04-12T23:33:04.263Z,96864.38
2023-04-12T23:35:38.907Z,96861.19
2023-04-12T23:38:07.454Z,96857.88
2023-04-12T23:40:36.127Z,96863.91
2023-04-12T23:43:04.274Z,96871.72
2023-04-12T23:45:32.449Z,96879.41
2023-04-12T23:48:00.860Z,96882.81
2023-04-12T23:50:29.324Z,96875.81
2023-04-12T23:52:58.729Z,96881.97
2023-04-12T23:55:27.121Z,96887.06
2023-04-12T23:57:55.180Z,96874.44
